Ann Arbor, MI

1:37 AM EDT on April 01, 2015 (GMT -0400)
Ann Arbor Municipal | | Change Station
CLOSE
Current Station
Airport
Location: Ann Arbor,
Elevation: 837 ft
Nearby Weather Stations

Elev 837 ft 42.22 °N, 83.74 °W | Updated 44 minutes ago

Partly Cloudy
Partly Cloudy
32 °F
Feels Like 28 °F
N
5
Wind Variable Wind from SSW

Today
High -- | Low -- °F
--% Chance of Precip.
Yesterday
High -- | Low -- °F
Precip. -- in
7:18 AM 8:00 PM
Waxing Gibbous, 91% visible
Pressure 29.99 in
Visibility 6.0 miles
Clouds Clear
Windchill 28 °F
Dew Point 31 °F
Humidity 96%
Rainfall 0.00 in
Snow Depth Not available.
UV 0 out of 12
Pollen 4.50 out of 12
Air Quality Not available.
Flu Activity Not available.
METAR KARB 010453Z AUTO 21004KT 6SM BR CLR 00/M01 A2997 RMK AO2 SLP155 I1001 T00001006 400941017 $

More Conditions Fewer Conditions

Pressure 29.99 in
Visibility 6.0 miles
Clouds Clear
Windchill 28 °F
Dew Point 31 °F
Humidity 96%
Rainfall 0.00 in
Snow Depth Not available.
UV 0 out of 12
Pollen 4.50 out of 12
Air Quality Not available.
Flu Activity Not available.
METAR KARB 010453Z AUTO 21004KT 6SM BR CLR 00/M01 A2997 RMK AO2 SLP155 I1001 T00001006 400941017 $

More Conditions Fewer Conditions

10-Day Weather Forecast

Almanac

Astronomy

Apr. 01, 2015 Rise Set
Actual Time
Civil Twilight
Nautical Twilight
Astronomical Twilight
Moon
Length of Visible Light
Length of Day
Tomorrow will be .
, % of the Moon is Illuminated

Today's Extremes

State Highs State Lows

Community

WunderPhotos

Upload Photos

1,809,919 photos uploaded!

WunderBlogs® & News

Nearby

Air Quality

  Air Quality AQ Index Pollutant
Not available.

Snow Depth

Station Depth Elevation

Earthquake Activity

City Distance Mag. Time & Date
Minimum magnitude displayed is 2.5.

Coastal Water Temperatures

Place Temperature

Stations

Nearby Weather Stations

Station Location Temp. Windchill Dew Point Humidity Wind Precip. Elev Updated Type